sensor_id;sensor_type;location;lat;lon;timestamp;pressure;altitude;pressure_sealevel;temperature
13219;BMP180;6674;49.152;11.918;2023-05-31T00:01:04;96478.63;;;15.61
13219;BMP180;6674;49.152;11.918;2023-05-31T00:03:31;96471.19;;;15.53
13219;BMP180;6674;49.152;11.918;2023-05-31T00:05:58;96479.69;;;15.49
13219;BMP180;6674;49.152;11.918;2023-05-31T00:08:24;96480.13;;;15.46
13219;BMP180;6674;49.152;11.918;2023-05-31T00:10:52;96482.66;;;15.41
13219;BMP180;6674;49.152;11.918;2023-05-31T00:13:19;96477.03;;;15.32
13219;BMP180;6674;49.152;11.918;2023-05-31T00:15:46;96479.63;;;15.32
13219;BMP180;6674;49.152;11.918;2023-05-31T00:18:13;96475.34;;;15.26
13219;BMP180;6674;49.152;11.918;2023-05-31T00:20:39;96475.34;;;15.26
13219;BMP180;6674;49.152;11.918;2023-05-31T00:23:06;96479.13;;;15.19
13219;BMP180;6674;49.152;11.918;2023-05-31T00:25:33;96481.16;;;15.17
13219;BMP180;6674;49.152;11.918;2023-05-31T00:28:01;96473.38;;;15.17
13219;BMP180;6674;49.152;11.918;2023-05-31T00:30:28;96474.72;;;15.08
13219;BMP180;6674;49.152;11.918;2023-05-31T00:32:54;96473.69;;;15.09
13219;BMP180;6674;49.152;11.918;2023-05-31T00:35:21;96476.97;;;15.05
13219;BMP180;6674;49.152;11.918;2023-05-31T00:37:48;96482.19;;;15.05
13219;BMP180;6674;49.152;11.918;2023-05-31T00:40:14;96479.59;;;15.05
13219;BMP180;6674;49.152;11.918;2023-05-31T00:42:41;96476.44;;;15.03
13219;BMP180;6674;49.152;11.918;2023-05-31T00:45:10;96474.75;;;14.97
13219;BMP180;6674;49.152;11.918;2023-05-31T00:47:37;96480.16;;;14.95
13219;BMP180;6674;49.152;11.918;2023-05-31T00:50:05;96485.59;;;14.94
13219;BMP180;6674;49.152;11.918;2023-05-31T00:52:34;96483.13;;;14.87
13219;BMP180;6674;49.152;11.918;2023-05-31T00:55:01;96479.84;;;14.80
13219;BMP180;6674;49.152;11.918;2023-05-31T00:57:28;96482.47;;;14.69
13219;BMP180;6674;49.152;11.918;2023-05-31T00:59:55;96467.91;;;14.68
13219;BMP180;6674;49.152;11.918;2023-05-31T01:02:23;96466.13;;;14.68
13219;BMP180;6674;49.152;11.918;2023-05-31T01:04:51;96468.47;;;14.70
13219;BMP180;6674;49.152;11.918;2023-05-31T01:07:18;96469.50;;;14.69
13219;BMP180;6674;49.152;11.918;2023-05-31T01:09:44;96471.31;;;14.68
13219;BMP180;6674;49.152;11.918;2023-05-31T01:12:25;96467.34;;;14.66
13219;BMP180;6674;49.152;11.918;2023-05-31T01:15:02;96466.22;;;14.62
13219;BMP180;6674;49.152;11.918;2023-05-31T01:17:39;96463.19;;;14.54
13219;BMP180;6674;49.152;11.918;2023-05-31T01:20:11;96465.69;;;14.49
13219;BMP180;6674;49.152;11.918;2023-05-31T01:22:46;96462.06;;;14.50
13219;BMP180;6674;49.152;11.918;2023-05-31T01:25:26;96470.88;;;14.49
13219;BMP180;6674;49.152;11.918;2023-05-31T01:27:56;96460.63;;;14.42
13219;BMP180;6674;49.152;11.918;2023-05-31T01:30:24;96458.91;;;14.36
13219;BMP180;6674;49.152;11.918;2023-05-31T01:32:52;96454.06;;;14.28
13219;BMP180;6674;49.152;11.918;2023-05-31T01:35:19;96463.22;;;14.31
13219;BMP180;6674;49.152;11.918;2023-05-31T01:37:45;96457.66;;;14.27
13219;BMP180;6674;49.152;11.918;2023-05-31T01:40:13;96462.41;;;14.30
13219;BMP180;6674;49.152;11.918;2023-05-31T01:42:40;96464.00;;;14.31
13219;BMP180;6674;49.152;11.918;2023-05-31T01:45:10;96464.53;;;14.33
13219;BMP180;6674;49.152;11.918;2023-05-31T01:47:39;96466.59;;;14.31
13219;BMP180;6674;49.152;11.918;2023-05-31T01:50:07;96463.22;;;14.31
13219;BMP180;6674;49.152;11.918;2023-05-31T01:52:34;96463.53;;;14.34
13219;BMP180;6674;49.152;11.918;2023-05-31T01:55:02;96466.69;;;14.36
13219;BMP180;6674;49.152;11.918;2023-05-31T01:57:29;96474.38;;;14.31
13219;BMP180;6674;49.152;11.918;2023-05-31T01:59:57;96476.41;;;14.29
13219;BMP180;6674;49.152;11.918;2023-05-31T02:02:27;96476.97;;;14.20
13219;BMP180;6674;49.152;11.918;2023-05-31T02:05:04;96483.03;;;14.14
13219;BMP180;6674;49.152;11.918;2023-05-31T02:07:33;96480.66;;;14.13
13219;BMP180;6674;49.152;11.918;2023-05-31T02:10:00;96487.22;;;14.15
13219;BMP180;6674;49.152;11.918;2023-05-31T02:12:28;96477.63;;;14.16
13219;BMP180;6674;49.152;11.918;2023-05-31T02:14:54;96484.06;;;14.13
13219;BMP180;6674;49.152;11.918;2023-05-31T02:17:21;96489.47;;;14.12
13219;BMP180;6674;49.152;11.918;2023-05-31T02:19:50;96483.16;;;14.08
13219;BMP180;6674;49.152;11.918;2023-05-31T02:22:17;96493.53;;;14.08
13219;BMP180;6674;49.152;11.918;2023-05-31T02:24:43;96487.06;;;13.99
13219;BMP180;6674;49.152;11.918;2023-05-31T02:27:10;96492.47;;;13.97
13219;BMP180;6674;49.152;11.918;2023-05-31T02:29:37;96493.25;;;13.98
13219;BMP180;6674;49.152;11.918;2023-05-31T02:32:04;96491.09;;;13.95
13219;BMP180;6674;49.152;11.918;2023-05-31T02:34:31;96484.13;;;13.95
13219;BMP180;6674;49.152;11.918;2023-05-31T02:37:00;96489.66;;;13.99
13219;BMP180;6674;49.152;11.918;2023-05-31T02:39:28;96482.88;;;13.98
13219;BMP180;6674;49.152;11.918;2023-05-31T02:41:55;96487.72;;;13.94
13219;BMP180;6674;49.152;11.918;2023-05-31T02:44:21;96484.78;;;13.91
13219;BMP180;6674;49.152;11.918;2023-05-31T02:46:48;96483.63;;;13.87
13219;BMP180;6674;49.152;11.918;2023-05-31T02:49:15;96487.81;;;13.88
13219;BMP180;6674;49.152;11.918;2023-05-31T02:51:41;96491.88;;;13.84
13219;BMP180;6674;49.152;11.918;2023-05-31T02:54:09;96489.16;;;13.79
13219;BMP180;6674;49.152;11.918;2023-05-31T02:56:36;96496.34;;;13.77
13219;BMP180;6674;49.152;11.918;2023-05-31T02:59:02;96488.00;;;13.75
13219;BMP180;6674;49.152;11.918;2023-05-31T03:01:29;96486.47;;;13.74
13219;BMP180;6674;49.152;11.918;2023-05-31T03:03:56;96487.34;;;13.68
13219;BMP180;6674;49.152;11.918;2023-05-31T03:06:22;96485.19;;;13.65
13219;BMP180;6674;49.152;11.918;2023-05-31T03:08:50;96486.78;;;13.66
13219;BMP180;6674;49.152;11.918;2023-05-31T03:11:17;96497.56;;;13.63
13219;BMP180;6674;49.152;11.918;2023-05-31T03:13:44;96486.63;;;13.61
13219;BMP180;6674;49.152;11.918;2023-05-31T03:16:11;96489.22;;;13.61
13219;BMP180;6674;49.152;11.918;2023-05-31T03:18:37;96499.00;;;13.59
13219;BMP180;6674;49.152;11.918;2023-05-31T03:21:04;96493.81;;;13.59
13219;BMP180;6674;49.152;11.918;2023-05-31T03:23:31;96491.69;;;13.56
13219;BMP180;6674;49.152;11.918;2023-05-31T03:25:57;96501.47;;;13.54
13219;BMP180;6674;49.152;11.918;2023-05-31T03:28:25;96497.88;;;13.55
13219;BMP180;6674;49.152;11.918;2023-05-31T03:30:52;96491.78;;;13.50
13219;BMP180;6674;49.152;11.918;2023-05-31T03:33:19;96488.25;;;13.44
13219;BMP180;6674;49.152;11.918;2023-05-31T03:35:46;96494.25;;;13.45
13219;BMP180;6674;49.152;11.918;2023-05-31T03:38:13;96498.75;;;13.49
13219;BMP180;6674;49.152;11.918;2023-05-31T03:40:40;96498.75;;;13.49
13219;BMP180;6674;49.152;11.918;2023-05-31T03:43:07;96500.09;;;13.40
13219;BMP180;6674;49.152;11.918;2023-05-31T03:45:35;96495.13;;;13.39
13219;BMP180;6674;49.152;11.918;2023-05-31T03:48:01;96498.72;;;13.38
13219;BMP180;6674;49.152;11.918;2023-05-31T03:50:28;96501.97;;;13.34
13219;BMP180;6674;49.152;11.918;2023-05-31T03:52:54;96497.94;;;13.37
13219;BMP180;6674;49.152;11.918;2023-05-31T03:55:21;96495.91;;;13.39
13219;BMP180;6674;49.152;11.918;2023-05-31T03:57:50;96497.06;;;13.43
13219;BMP180;6674;49.152;11.918;2023-05-31T04:00:17;96503.59;;;13.46
13219;BMP180;6674;49.152;11.918;2023-05-31T04:02:45;96501.94;;;13.51
13219;BMP180;6674;49.152;11.918;2023-05-31T04:05:12;96499.91;;;13.53
13219;BMP180;6674;49.152;11.918;2023-05-31T04:07:39;96493.81;;;13.59
13219;BMP180;6674;49.152;11.918;2023-05-31T04:10:06;96494.97;;;13.63
13219;BMP180;6674;49.152;11.918;2023-05-31T04:12:33;96490.78;;;13.62
13219;BMP180;6674;49.152;11.918;2023-05-31T04:15:00;96498.34;;;13.64
13219;BMP180;6674;49.152;11.918;2023-05-31T04:17:27;96495.66;;;13.70
13219;BMP180;6674;49.152;11.918;2023-05-31T04:19:55;96498.81;;;13.72
13219;BMP180;6674;49.152;11.918;2023-05-31T04:22:22;96499.25;;;13.69
13219;BMP180;6674;49.152;11.918;2023-05-31T04:24:48;96500.84;;;13.70
13219;BMP180;6674;49.152;11.918;2023-05-31T04:27:15;96507.75;;;13.76
13219;BMP180;6674;49.152;11.918;2023-05-31T04:29:43;96508.31;;;13.78
13219;BMP180;6674;49.152;11.918;2023-05-31T04:32:11;96504.72;;;13.79
13219;BMP180;6674;49.152;11.918;2023-05-31T04:34:40;96517.81;;;13.84
13219;BMP180;6674;49.152;11.918;2023-05-31T04:37:08;96521.31;;;13.89
13219;BMP180;6674;49.152;11.918;2023-05-31T04:39:35;96519.63;;;13.95
13219;BMP180;6674;49.152;11.918;2023-05-31T04:42:02;96514.00;;;13.98
13219;BMP180;6674;49.152;11.918;2023-05-31T04:44:30;96517.63;;;13.97
13219;BMP180;6674;49.152;11.918;2023-05-31T04:46:58;96517.16;;;14.00
13219;BMP180;6674;49.152;11.918;2023-05-31T04:49:24;96517.16;;;14.00
13219;BMP180;6674;49.152;11.918;2023-05-31T04:51:52;96522.75;;;14.03
13219;BMP180;6674;49.152;11.918;2023-05-31T04:54:20;96521.50;;;14.06
13219;BMP180;6674;49.152;11.918;2023-05-31T04:56:47;96524.22;;;14.11
13219;BMP180;6674;49.152;11.918;2023-05-31T04:59:14;96514.63;;;14.11
13219;BMP180;6674;49.152;11.918;2023-05-31T05:01:40;96522.75;;;14.15
13219;BMP180;6674;49.152;11.918;2023-05-31T05:04:07;96525.69;;;14.18
13219;BMP180;6674;49.152;11.918;2023-05-31T05:06:34;96525.00;;;14.23
13219;BMP180;6674;49.152;11.918;2023-05-31T05:09:03;96525.94;;;14.39
13219;BMP180;6674;49.152;11.918;2023-05-31T05:11:31;96534.19;;;14.36
13219;BMP180;6674;49.152;11.918;2023-05-31T05:13:57;96530.91;;;14.41
13219;BMP180;6674;49.152;11.918;2023-05-31T05:16:24;96527.97;;;14.37
13219;BMP180;6674;49.152;11.918;2023-05-31T05:18:51;96536.44;;;14.44
13219;BMP180;6674;49.152;11.918;2023-05-31T05:21:17;96530.00;;;14.47
13219;BMP180;6674;49.152;11.918;2023-05-31T05:23:44;96541.75;;;14.49
13219;BMP180;6674;49.152;11.918;2023-05-31T05:26:11;96535.66;;;14.55
13219;BMP180;6674;49.152;11.918;2023-05-31T05:28:39;96541.75;;;14.61
13219;BMP180;6674;49.152;11.918;2023-05-31T05:31:06;96535.66;;;14.67
13219;BMP180;6674;49.152;11.918;2023-05-31T05:33:33;96533.50;;;14.75
13219;BMP180;6674;49.152;11.918;2023-05-31T05:36:00;96544.13;;;14.85
13219;BMP180;6674;49.152;11.918;2023-05-31T05:38:27;96540.84;;;14.89
13219;BMP180;6674;49.152;11.918;2023-05-31T05:40:54;96551.09;;;14.96
13219;BMP180;6674;49.152;11.918;2023-05-31T05:43:21;96548.13;;;15.04
13219;BMP180;6674;49.152;11.918;2023-05-31T05:45:49;96561.81;;;15.10
13219;BMP180;6674;49.152;11.918;2023-05-31T05:48:15;96565.09;;;15.17
13219;BMP180;6674;49.152;11.918;2023-05-31T05:50:42;96560.00;;;15.22
13219;BMP180;6674;49.152;11.918;2023-05-31T05:53:09;96554.13;;;15.27
13219;BMP180;6674;49.152;11.918;2023-05-31T05:55:36;96568.34;;;15.36
13219;BMP180;6674;49.152;11.918;2023-05-31T05:58:03;96561.44;;;15.41
13219;BMP180;6674;49.152;11.918;2023-05-31T06:00:31;96563.66;;;15.49
13219;BMP180;6674;49.152;11.918;2023-05-31T06:02:59;96569.88;;;15.59
13219;BMP180;6674;49.152;11.918;2023-05-31T06:05:25;96567.44;;;15.69
13219;BMP180;6674;49.152;11.918;2023-05-31T06:07:53;96557.59;;;15.71
13219;BMP180;6674;49.152;11.918;2023-05-31T06:10:20;96561.66;;;15.79
13219;BMP180;6674;49.152;11.918;2023-05-31T06:12:47;96565.22;;;15.89
13219;BMP180;6674;49.152;11.918;2023-05-31T06:15:14;96577.06;;;15.97
13219;BMP180;6674;49.152;11.918;2023-05-31T06:17:40;96570.44;;;16.05
13219;BMP180;6674;49.152;11.918;2023-05-31T06:20:10;96562.25;;;16.13
13219;BMP180;6674;49.152;11.918;2023-05-31T06:22:37;96559.75;;;16.18
13219;BMP180;6674;49.152;11.918;2023-05-31T06:25:04;96559.16;;;16.28
13219;BMP180;6674;49.152;11.918;2023-05-31T06:27:31;96555.13;;;16.37
13219;BMP180;6674;49.152;11.918;2023-05-31T06:29:58;96553.25;;;16.48
13219;BMP180;6674;49.152;11.918;2023-05-31T06:32:26;96553.63;;;16.57
13219;BMP180;6674;49.152;11.918;2023-05-31T06:34:52;96555.38;;;16.68
13219;BMP180;6674;49.152;11.918;2023-05-31T06:37:21;96551.88;;;16.79
13219;BMP180;6674;49.152;11.918;2023-05-31T06:39:48;96549.63;;;16.87
13219;BMP180;6674;49.152;11.918;2023-05-31T06:42:15;96559.41;;;16.96
13219;BMP180;6674;49.152;11.918;2023-05-31T06:44:42;96560.59;;;17.05
13219;BMP180;6674;49.152;11.918;2023-05-31T06:47:09;96557.06;;;17.16
13219;BMP180;6674;49.152;11.918;2023-05-31T06:49:36;96555.66;;;17.25
13219;BMP180;6674;49.152;11.918;2023-05-31T06:52:03;96557.31;;;17.31
13219;BMP180;6674;49.152;11.918;2023-05-31T06:54:34;96544.47;;;17.46
13219;BMP180;6674;49.152;11.918;2023-05-31T06:57:01;96540.44;;;17.60
13219;BMP180;6674;49.152;11.918;2023-05-31T06:59:27;96542.91;;;17.71
13219;BMP180;6674;49.152;11.918;2023-05-31T07:01:54;96551.06;;;17.79
13219;BMP180;6674;49.152;11.918;2023-05-31T07:04:21;96542.31;;;17.90
13219;BMP180;6674;49.152;11.918;2023-05-31T07:06:48;96537.19;;;18.00
13219;BMP180;6674;49.152;11.918;2023-05-31T07:09:15;96541.25;;;18.13
13219;BMP180;6674;49.152;11.918;2023-05-31T07:11:43;96541.16;;;18.29
13219;BMP180;6674;49.152;11.918;2023-05-31T07:14:09;96537.06;;;18.43
13219;BMP180;6674;49.152;11.918;2023-05-31T07:16:36;96541.34;;;18.54
13219;BMP180;6674;49.152;11.918;2023-05-31T07:19:03;96525.22;;;18.66
13219;BMP180;6674;49.152;11.918;2023-05-31T07:21:30;96529.78;;;18.81
13219;BMP180;6674;49.152;11.918;2023-05-31T07:23:56;96524.63;;;18.96
13219;BMP180;6674;49.152;11.918;2023-05-31T07:26:23;96529.66;;;19.02
13219;BMP180;6674;49.152;11.918;2023-05-31T07:28:51;96524.47;;;19.12
13219;BMP180;6674;49.152;11.918;2023-05-31T07:31:19;96521.81;;;19.02
13219;BMP180;6674;49.152;11.918;2023-05-31T07:33:46;96516.59;;;19.02
13219;BMP180;6674;49.152;11.918;2023-05-31T07:36:13;96519.53;;;19.15
13219;BMP180;6674;49.152;11.918;2023-05-31T07:38:40;96523.44;;;19.08
13219;BMP180;6674;49.152;11.918;2023-05-31T07:41:06;96514.81;;;19.17
13219;BMP180;6674;49.152;11.918;2023-05-31T07:43:33;96512.03;;;19.39
13219;BMP180;6674;49.152;11.918;2023-05-31T07:46:02;96521.47;;;19.45
13219;BMP180;6674;49.152;11.918;2023-05-31T07:48:29;96517.34;;;19.63
13219;BMP180;6674;49.152;11.918;2023-05-31T07:50:57;96510.06;;;19.80
13219;BMP180;6674;49.152;11.918;2023-05-31T07:53:24;96516.41;;;19.94
13219;BMP180;6674;49.152;11.918;2023-05-31T07:55:50;96504.09;;;20.04
13219;BMP180;6674;49.152;11.918;2023-05-31T07:58:17;96503.06;;;20.10
13219;BMP180;6674;49.152;11.918;2023-05-31T08:00:45;96502.81;;;20.22
13219;BMP180;6674;49.152;11.918;2023-05-31T08:03:13;96498.34;;;20.32
13219;BMP180;6674;49.152;11.918;2023-05-31T08:05:40;96493.34;;;20.45
13219;BMP180;6674;49.152;11.918;2023-05-31T08:08:06;96496.50;;;20.62
13219;BMP180;6674;49.152;11.918;2023-05-31T08:10:33;96495.44;;;20.63
13219;BMP180;6674;49.152;11.918;2023-05-31T08:13:00;96490.72;;;20.55
13219;BMP180;6674;49.152;11.918;2023-05-31T08:15:26;96494.16;;;20.71
13219;BMP180;6674;49.152;11.918;2023-05-31T08:17:53;96492.03;;;20.77
13219;BMP180;6674;49.152;11.918;2023-05-31T08:20:22;96494.38;;;20.79
13219;BMP180;6674;49.152;11.918;2023-05-31T08:22:48;96499.53;;;21.09
13219;BMP180;6674;49.152;11.918;2023-05-31T08:25:15;96486.66;;;21.27
13219;BMP180;6674;49.152;11.918;2023-05-31T08:27:43;96488.44;;;21.31
13219;BMP180;6674;49.152;11.918;2023-05-31T08:30:10;96485.25;;;21.39
13219;BMP180;6674;49.152;11.918;2023-05-31T08:32:38;96492.13;;;21.35
13219;BMP180;6674;49.152;11.918;2023-05-31T08:35:06;96490.25;;;21.46
13219;BMP180;6674;49.152;11.918;2023-05-31T08:37:36;96494.91;;;21.59
13219;BMP180;6674;49.152;11.918;2023-05-31T08:40:04;96486.72;;;21.70
13219;BMP180;6674;49.152;11.918;2023-05-31T08:42:37;96482.50;;;21.74
13219;BMP180;6674;49.152;11.918;2023-05-31T08:45:06;96492.97;;;21.79
13219;BMP180;6674;49.152;11.918;2023-05-31T08:47:36;96480.75;;;21.98
13219;BMP180;6674;49.152;11.918;2023-05-31T08:50:05;96476.56;;;21.97
13219;BMP180;6674;49.152;11.918;2023-05-31T08:52:32;96479.19;;;21.97
13219;BMP180;6674;49.152;11.918;2023-05-31T08:55:01;96474.44;;;21.99
13219;BMP180;6674;49.152;11.918;2023-05-31T08:57:29;96474.78;;;22.25
13219;BMP180;6674;49.152;11.918;2023-05-31T08:59:58;96472.63;;;22.32
13219;BMP180;6674;49.152;11.918;2023-05-31T09:02:27;96465.75;;;22.36
13219;BMP180;6674;49.152;11.918;2023-05-31T09:04:55;96466.53;;;22.37
13219;BMP180;6674;49.152;11.918;2023-05-31T09:07:22;96465.84;;;22.54
13219;BMP180;6674;49.152;11.918;2023-05-31T09:09:49;96464.38;;;22.72
13219;BMP180;6674;49.152;11.918;2023-05-31T09:12:17;96469.19;;;22.88
13219;BMP180;6674;49.152;11.918;2023-05-31T09:14:44;96467.78;;;23.00
13219;BMP180;6674;49.152;11.918;2023-05-31T09:17:11;96470.25;;;22.87
13219;BMP180;6674;49.152;11.918;2023-05-31T09:19:40;96464.78;;;23.07
13219;BMP180;6674;49.152;11.918;2023-05-31T09:22:07;96465.16;;;23.00
13219;BMP180;6674;49.152;11.918;2023-05-31T09:24:34;96460.50;;;22.93
13219;BMP180;6674;49.152;11.918;2023-05-31T09:27:01;96460.72;;;22.96
13219;BMP180;6674;49.152;11.918;2023-05-31T09:29:29;96462.41;;;23.10
13219;BMP180;6674;49.152;11.918;2023-05-31T09:32:07;96459.03;;;23.28
13219;BMP180;6674;49.152;11.918;2023-05-31T09:34:34;96456.47;;;23.60
13219;BMP180;6674;49.152;11.918;2023-05-31T09:37:01;96451.72;;;23.62
13219;BMP180;6674;49.152;11.918;2023-05-31T09:39:28;96457.94;;;23.47
13219;BMP180;6674;49.152;11.918;2023-05-31T09:41:56;96451.97;;;23.84
13219;BMP180;6674;49.152;11.918;2023-05-31T09:44:25;96455.66;;;23.83
13219;BMP180;6674;49.152;11.918;2023-05-31T09:46:54;96450.63;;;23.99
13219;BMP180;6674;49.152;11.918;2023-05-31T09:49:22;96448.78;;;24.18
13219;BMP180;6674;49.152;11.918;2023-05-31T09:51:50;96444.47;;;24.22
13219;BMP180;6674;49.152;11.918;2023-05-31T09:54:17;96437.13;;;24.37
13219;BMP180;6674;49.152;11.918;2023-05-31T09:56:48;96431.13;;;24.50
13219;BMP180;6674;49.152;11.918;2023-05-31T09:59:15;96431.97;;;24.46
13219;BMP180;6674;49.152;11.918;2023-05-31T10:01:43;96432.47;;;24.48
13219;BMP180;6674;49.152;11.918;2023-05-31T10:04:12;96437.09;;;24.69
13219;BMP180;6674;49.152;11.918;2023-05-31T10:06:38;96424.50;;;24.79
13219;BMP180;6674;49.152;11.918;2023-05-31T10:09:06;96438.41;;;24.98
13219;BMP180;6674;49.152;11.918;2023-05-31T10:11:34;96439.00;;;25.09
13219;BMP180;6674;49.152;11.918;2023-05-31T10:14:03;96437.50;;;24.76
13219;BMP180;6674;49.152;11.918;2023-05-31T10:16:35;96430.34;;;24.63
13219;BMP180;6674;49.152;11.918;2023-05-31T10:19:06;96438.91;;;25.00
13219;BMP180;6674;49.152;11.918;2023-05-31T10:21:41;96430.47;;;24.85
13219;BMP180;6674;49.152;11.918;2023-05-31T10:24:12;96425.28;;;24.67
13219;BMP180;6674;49.152;11.918;2023-05-31T10:26:44;96426.16;;;24.75
13219;BMP180;6674;49.152;11.918;2023-05-31T10:29:16;96425.06;;;24.50
13219;BMP180;6674;49.152;11.918;2023-05-31T10:31:48;96421.63;;;24.49
13219;BMP180;6674;49.152;11.918;2023-05-31T10:34:21;96416.88;;;24.78
13219;BMP180;6674;49.152;11.918;2023-05-31T10:36:50;96428.25;;;25.05
13219;BMP180;6674;49.152;11.918;2023-05-31T10:39:25;96408.38;;;25.34
13219;BMP180;6674;49.152;11.918;2023-05-31T10:41:58;96421.28;;;25.36
13219;BMP180;6674;49.152;11.918;2023-05-31T10:44:45;96417.56;;;24.97
13219;BMP180;6674;49.152;11.918;2023-05-31T10:47:15;96413.75;;;25.29
13219;BMP180;6674;49.152;11.918;2023-05-31T10:49:43;96408.97;;;25.66
13219;BMP180;6674;49.152;11.918;2023-05-31T10:52:12;96402.00;;;26.05
13219;BMP180;6674;49.152;11.918;2023-05-31T10:54:42;96399.09;;;26.37
13219;BMP180;6674;49.152;11.918;2023-05-31T10:57:11;96389.56;;;26.58
13219;BMP180;6674;49.152;11.918;2023-05-31T10:59:44;96394.25;;;26.61
13219;BMP180;6674;49.152;11.918;2023-05-31T11:02:11;96398.81;;;26.47
13219;BMP180;6674;49.152;11.918;2023-05-31T11:04:38;96382.81;;;26.52
13219;BMP180;6674;49.152;11.918;2023-05-31T11:07:14;96397.66;;;26.61
13219;BMP180;6674;49.152;11.918;2023-05-31T11:09:54;96398.97;;;26.81
13219;BMP180;6674;49.152;11.918;2023-05-31T11:12:32;96385.03;;;26.58
13219;BMP180;6674;49.152;11.918;2023-05-31T11:14:59;96382.53;;;26.53
13219;BMP180;6674;49.152;11.918;2023-05-31T11:17:26;96380.72;;;26.71
13219;BMP180;6674;49.152;11.918;2023-05-31T11:19:54;96380.38;;;26.94
13219;BMP180;6674;49.152;11.918;2023-05-31T11:22:28;96375.66;;;26.52
13219;BMP180;6674;49.152;11.918;2023-05-31T11:24:56;96380.84;;;26.57
13219;BMP180;6674;49.152;11.918;2023-05-31T11:27:34;96378.25;;;26.74
13219;BMP180;6674;49.152;11.918;2023-05-31T11:30:02;96370.69;;;26.98
13219;BMP180;6674;49.152;11.918;2023-05-31T11:32:54;96372.75;;;27.01
13219;BMP180;6674;49.152;11.918;2023-05-31T11:35:22;96371.53;;;26.77
13219;BMP180;6674;49.152;11.918;2023-05-31T11:37:59;96371.66;;;27.02
13219;BMP180;6674;49.152;11.918;2023-05-31T11:40:27;96370.91;;;27.10
13219;BMP180;6674;49.152;11.918;2023-05-31T11:43:02;96370.91;;;27.10
13219;BMP180;6674;49.152;11.918;2023-05-31T11:45:31;96357.81;;;27.05
13219;BMP180;6674;49.152;11.918;2023-05-31T11:48:07;96360.50;;;27.38
13219;BMP180;6674;49.152;11.918;2023-05-31T11:50:35;96353.66;;;27.63
13219;BMP180;6674;49.152;11.918;2023-05-31T11:53:04;96355.38;;;27.76
13219;BMP180;6674;49.152;11.918;2023-05-31T11:55:31;96358.19;;;27.62
13219;BMP180;6674;49.152;11.918;2023-05-31T11:58:00;96358.50;;;27.86
13219;BMP180;6674;49.152;11.918;2023-05-31T12:00:28;96351.63;;;27.35
13219;BMP180;6674;49.152;11.918;2023-05-31T12:02:55;96347.28;;;27.55
13219;BMP180;6674;49.152;11.918;2023-05-31T12:05:23;96352.06;;;27.20
13219;BMP180;6674;49.152;11.918;2023-05-31T12:07:52;96349.28;;;27.16
13219;BMP180;6674;49.152;11.918;2023-05-31T12:10:25;96355.06;;;27.43
13219;BMP180;6674;49.152;11.918;2023-05-31T12:12:52;96338.72;;;27.58
13219;BMP180;6674;49.152;11.918;2023-05-31T12:15:19;96341.03;;;27.51
13219;BMP180;6674;49.152;11.918;2023-05-31T12:17:46;96340.59;;;27.66
13219;BMP180;6674;49.152;11.918;2023-05-31T12:20:12;96341.22;;;27.55
13219;BMP180;6674;49.152;11.918;2023-05-31T12:22:40;96335.09;;;27.46
13219;BMP180;6674;49.152;11.918;2023-05-31T12:25:07;96338.53;;;27.80
13219;BMP180;6674;49.152;11.918;2023-05-31T12:27:36;96336.97;;;27.96
13219;BMP180;6674;49.152;11.918;2023-05-31T12:30:03;96335.09;;;27.96
13219;BMP180;6674;49.152;11.918;2023-05-31T12:32:30;96321.88;;;27.80
13219;BMP180;6674;49.152;11.918;2023-05-31T12:35:04;96320.59;;;27.35
13219;BMP180;6674;49.152;11.918;2023-05-31T12:37:35;96319.84;;;27.51
13219;BMP180;6674;49.152;11.918;2023-05-31T12:40:08;96315.00;;;27.79
13219;BMP180;6674;49.152;11.918;2023-05-31T12:42:37;96312.63;;;27.94
13219;BMP180;6674;49.152;11.918;2023-05-31T12:45:04;96314.19;;;28.12
13219;BMP180;6674;49.152;11.918;2023-05-31T12:47:32;96309.59;;;28.29
13219;BMP180;6674;49.152;11.918;2023-05-31T12:50:01;96309.72;;;28.32
13219;BMP180;6674;49.152;11.918;2023-05-31T12:52:30;96310.94;;;28.43
13219;BMP180;6674;49.152;11.918;2023-05-31T12:54:59;96299.25;;;28.36
13219;BMP180;6674;49.152;11.918;2023-05-31T12:57:27;96313.84;;;28.22
13219;BMP180;6674;49.152;11.918;2023-05-31T12:59:59;96306.72;;;27.80
13219;BMP180;6674;49.152;11.918;2023-05-31T13:02:26;96307.22;;;27.74
13219;BMP180;6674;49.152;11.918;2023-05-31T13:04:53;96305.16;;;27.96
13219;BMP180;6674;49.152;11.918;2023-05-31T13:07:21;96302.91;;;28.15
13219;BMP180;6674;49.152;11.918;2023-05-31T13:09:48;96295.44;;;28.17
13219;BMP180;6674;49.152;11.918;2023-05-31T13:12:15;96298.28;;;27.95
13219;BMP180;6674;49.152;11.918;2023-05-31T13:14:43;96288.16;;;27.88
13219;BMP180;6674;49.152;11.918;2023-05-31T13:17:11;96291.91;;;27.87
13219;BMP180;6674;49.152;11.918;2023-05-31T13:19:38;96293.31;;;27.77
13219;BMP180;6674;49.152;11.918;2023-05-31T13:22:05;96287.97;;;27.93
13219;BMP180;6674;49.152;11.918;2023-05-31T13:24:32;96294.44;;;27.59
13219;BMP180;6674;49.152;11.918;2023-05-31T13:26:59;96284.28;;;27.69
13219;BMP180;6674;49.152;11.918;2023-05-31T13:29:25;96277.41;;;27.85
13219;BMP180;6674;49.152;11.918;2023-05-31T13:31:52;96271.75;;;27.95
13219;BMP180;6674;49.152;11.918;2023-05-31T13:34:20;96268.97;;;27.91
13219;BMP180;6674;49.152;11.918;2023-05-31T13:36:47;96280.25;;;27.63
13219;BMP180;6674;49.152;11.918;2023-05-31T13:39:14;96273.84;;;27.81
13219;BMP180;6674;49.152;11.918;2023-05-31T13:41:41;96272.03;;;28.02
13219;BMP180;6674;49.152;11.918;2023-05-31T13:44:08;96274.56;;;28.07
13219;BMP180;6674;49.152;11.918;2023-05-31T13:46:36;96271.59;;;28.00
13219;BMP180;6674;49.152;11.918;2023-05-31T13:49:02;96264.09;;;28.02
13219;BMP180;6674;49.152;11.918;2023-05-31T13:51:31;96265.53;;;27.91
13219;BMP180;6674;49.152;11.918;2023-05-31T13:53:57;96256.97;;;27.77
13219;BMP180;6674;49.152;11.918;2023-05-31T13:56:24;96265.72;;;27.86
13219;BMP180;6674;49.152;11.918;2023-05-31T13:58:51;96258.09;;;27.59
13219;BMP180;6674;49.152;11.918;2023-05-31T14:01:18;96256.75;;;27.53
13219;BMP180;6674;49.152;11.918;2023-05-31T14:03:45;96252.16;;;27.71
13219;BMP180;6674;49.152;11.918;2023-05-31T14:06:12;96259.97;;;27.67
13219;BMP180;6674;49.152;11.918;2023-05-31T14:08:40;96254.81;;;27.71
13219;BMP180;6674;49.152;11.918;2023-05-31T14:11:08;96245.31;;;27.70
13219;BMP180;6674;49.152;11.918;2023-05-31T14:13:34;96239.50;;;27.84